Time;durP1;ratioP1;P1;durP2;ratioP2;P2;SDS_P1;SDS_P2;PMS_P1;PMS_P2;Temp;Humidity;BMP_temperature;BMP_pressure;BME280_temperature;BME280_humidity;BME280_pressure;Samples;Min_cycle;Max_cycle;Signal;HPM_P1;HPM_P2
2022/10/02 00:00:55;;;;;;;;;;;;;;;11.22;100.00;101096.50;5045902;28;19974;-74
2022/10/02 00:03:22;;;;;;;;;;;;;;;11.26;100.00;101102.50;5062539;28;20380;-73
2022/10/02 00:05:49;;;;;;;;;;;;;;;11.27;100.00;101113.06;5029991;28;19931;-74
2022/10/02 00:08:25;;;;;;;;;;;;;;;11.26;100.00;101114.00;5044600;28;20198;-74
2022/10/02 00:10:55;;;;;;;;;;;;;;;11.27;100.00;101121.00;5045572;28;20445;-74
2022/10/02 00:13:24;;;;;;;;;;;;;;;11.26;100.00;101113.13;5046017;28;19969;-74
2022/10/02 00:15:49;;;;;;;;;;;;;;;11.26;100.00;101116.63;5029143;28;19928;-74
2022/10/02 00:18:17;;;;;;;;;;;;;;;11.24;100.00;101115.81;5046644;28;20002;-74
2022/10/02 00:20:44;;;;;;;;;;;;;;;11.25;100.00;101114.06;5061881;28;19939;-74
2022/10/02 00:23:14;;;;;;;;;;;;;;;11.23;100.00;101116.75;5046519;28;19936;-75
2022/10/02 00:25:49;;;;;;;;;;;;;;;11.22;100.00;101117.69;5045825;28;19925;-74
2022/10/02 00:28:27;;;;;;;;;;;;;;;11.17;100.00;101119.66;5048042;28;20078;-74
2022/10/02 00:31:05;;;;;;;;;;;;;;;11.14;100.00;101122.47;5045664;28;19929;-74
2022/10/02 00:33:53;;;;;;;;;;;;;;;11.09;100.00;101113.84;5046757;28;20807;-73
2022/10/02 00:36:25;;;;;;;;;;;;;;;11.06;100.00;101120.16;5043937;28;19924;-73
2022/10/02 00:39:09;;;;;;;;;;;;;;;11.04;100.00;101123.78;5079017;28;19925;-74
2022/10/02 00:41:40;;;;;;;;;;;;;;;11.00;100.00;101128.34;5046377;28;20638;-73
2022/10/02 00:44:12;;;;;;;;;;;;;;;10.94;100.00;101129.50;5045600;28;19924;-74
2022/10/02 00:47:07;;;;;;;;;;;;;;;10.89;100.00;101136.75;5046920;28;19924;-75
2022/10/02 00:49:42;;;;;;;;;;;;;;;10.86;100.00;101131.59;5043514;28;19929;-75
2022/10/02 00:52:20;;;;;;;;;;;;;;;10.82;100.00;101143.25;5062398;28;19925;-74
2022/10/02 00:54:51;;;;;;;;;;;;;;;10.77;100.00;101147.84;5046899;28;20394;-74
2022/10/02 00:57:29;;;;;;;;;;;;;;;10.75;100.00;101147.06;5046366;28;19931;-74
2022/10/02 01:00:04;;;;;;;;;;;;;;;10.72;100.00;101156.88;5047222;28;19930;-74
2022/10/02 01:02:30;;;;;;;;;;;;;;;10.67;100.00;101147.41;5061427;28;20039;-74
2022/10/02 01:05:00;;;;;;;;;;;;;;;10.62;100.00;101147.56;5046742;28;20447;-74
2022/10/02 01:07:26;;;;;;;;;;;;;;;10.59;100.00;101158.31;5045344;28;20013;-75
2022/10/02 01:09:52;;;;;;;;;;;;;;;10.53;100.00;101161.19;5046837;28;19928;-74
2022/10/02 01:12:18;;;;;;;;;;;;;;;10.49;100.00;101157.81;5045518;28;19928;-73
2022/10/02 01:14:43;;;;;;;;;;;;;;;10.45;100.00;101159.72;5038499;28;19928;-74
2022/10/02 01:17:21;;;;;;;;;;;;;;;10.45;100.00;101159.72;5047479;28;20448;-73
2022/10/02 01:19:46;;;;;;;;;;;;;;;10.45;100.00;101158.84;5047717;28;19932;-74
2022/10/02 01:22:14;;;;;;;;;;;;;;;10.42;100.00;101157.16;5046149;28;20406;-74
2022/10/02 01:24:50;;;;;;;;;;;;;;;10.41;100.00;101158.06;5050839;28;19971;-74
2022/10/02 01:27:15;;;;;;;;;;;;;;;10.39;100.00;101151.97;5049534;28;20002;-74
2022/10/02 01:29:42;;;;;;;;;;;;;;;10.37;100.00;101145.91;5049573;28;20514;-74
2022/10/02 01:32:07;;;;;;;;;;;;;;;10.37;100.00;101148.53;5050753;28;20256;-74
2022/10/02 01:34:32;;;;;;;;;;;;;;;10.36;100.00;101152.13;5048500;28;19929;-74
2022/10/02 01:36:58;;;;;;;;;;;;;;;10.34;100.00;101151.28;5050692;28;19924;-74
2022/10/02 01:39:23;;;;;;;;;;;;;;;10.31;100.00;101146.13;5049891;28;20430;-74
2022/10/02 01:41:48;;;;;;;;;;;;;;;10.29;100.00;101153.25;5048772;28;19959;-74
2022/10/02 01:44:14;;;;;;;;;;;;;;;10.25;100.00;101149.03;5065353;28;19936;-75
2022/10/02 01:46:42;;;;;;;;;;;;;;;10.21;100.00;101155.34;5065150;28;20457;-75
2022/10/02 01:49:26;;;;;;;;;;;;;;;10.18;100.00;101167.78;5049387;28;19939;-75
2022/10/02 01:52:21;;;;;;;;;;;;;;;10.14;100.00;101160.88;5049222;28;19932;-75
2022/10/02 01:55:05;;;;;;;;;;;;;;;10.12;100.00;101168.00;5061961;28;20413;-75
2022/10/02 01:57:34;;;;;;;;;;;;;;;10.10;100.00;101167.22;5049176;28;19932;-75
2022/10/02 02:00:07;;;;;;;;;;;;;;;10.11;100.00;101158.34;5050082;28;20015;-75
2022/10/02 02:02:32;;;;;;;;;;;;;;;10.12;100.00;101165.38;5047795;28;20668;-75
2022/10/02 02:05:01;;;;;;;;;;;;;;;10.13;100.00;101161.81;5048111;28;19935;-75
2022/10/02 02:07:29;;;;;;;;;;;;;;;10.13;100.00;101161.81;5049251;28;19928;-75
2022/10/02 02:10:00;;;;;;;;;;;;;;;10.13;100.00;101167.09;5047804;28;19929;-74
2022/10/02 02:12:25;;;;;;;;;;;;;;;10.13;100.00;101168.88;5048361;28;20023;-74
2022/10/02 02:14:51;;;;;;;;;;;;;;;10.12;100.00;101168.00;5048456;28;19933;-74
2022/10/02 02:17:22;;;;;;;;;;;;;;;10.13;100.00;101163.59;5048343;28;19971;-75
2022/10/02 02:19:50;;;;;;;;;;;;;;;10.16;100.00;101164.34;5046788;28;19951;-75
2022/10/02 02:22:20;;;;;;;;;;;;;;;10.18;100.00;101164.25;5047760;28;20347;-74
2022/10/02 02:24:53;;;;;;;;;;;;;;;10.19;100.00;101166.84;5047348;28;21280;-74
2022/10/02 02:27:21;;;;;;;;;;;;;;;10.23;100.00;101166.75;5047855;28;20074;-74
2022/10/02 02:29:47;;;;;;;;;;;;;;;10.27;100.00;101161.28;5047125;28;19964;-75
2022/10/02 02:32:13;;;;;;;;;;;;;;;10.30;100.00;101165.59;5047555;28;20811;-74
2022/10/02 02:34:40;;;;;;;;;;;;;;;10.31;100.00;101169.97;5064192;28;19924;-75
2022/10/02 02:37:06;;;;;;;;;;;;;;;10.36;100.00;101167.13;5048515;28;20614;-75
2022/10/02 02:39:51;;;;;;;;;;;;;;;10.38;100.00;101168.78;5047295;28;19929;-74
2022/10/02 02:42:17;;;;;;;;;;;;;;;10.42;100.00;101173.06;5066036;28;19931;-75
2022/10/02 02:44:45;;;;;;;;;;;;;;;10.45;100.00;101174.72;5047002;28;19975;-74
2022/10/02 02:47:32;;;;;;;;;;;;;;;10.48;100.00;101181.69;5047198;28;19925;-75
2022/10/02 02:49:57;;;;;;;;;;;;;;;10.48;100.00;101176.38;5046812;28;19932;-75
2022/10/02 02:52:30;;;;;;;;;;;;;;;10.48;100.00;101177.25;5048577;28;19935;-74
2022/10/02 02:54:59;;;;;;;;;;;;;;;10.51;100.00;101192.16;5046648;28;19924;-75
2022/10/02 02:57:27;;;;;;;;;;;;;;;10.53;100.00;101182.38;5047999;28;19929;-74
2022/10/02 02:59:52;;;;;;;;;;;;;;;10.53;100.00;101174.44;5046474;28;20284;-75
2022/10/02 03:02:18;;;;;;;;;;;;;;;10.52;100.00;101194.72;5046512;28;19931;-75
2022/10/02 03:04:43;;;;;;;;;;;;;;;10.52;100.00;101191.25;5048024;28;19928;-75
2022/10/02 03:07:10;;;;;;;;;;;;;;;10.54;100.00;101186.75;5048125;28;19928;-75
2022/10/02 03:09:36;;;;;;;;;;;;;;;10.57;100.00;101191.94;5046501;28;20402;-75
2022/10/02 03:12:05;;;;;;;;;;;;;;;10.57;100.00;101199.88;5046313;28;20339;-74
2022/10/02 03:14:43;;;;;;;;;;;;;;;10.58;100.00;101191.00;5048023;28;19979;-75
2022/10/02 03:17:15;;;;;;;;;;;;;;;10.58;100.00;101204.22;5048057;28;20016;-74
2022/10/02 03:19:49;;;;;;;;;;;;;;;10.59;100.00;101208.59;5045839;28;20406;-74
2022/10/02 03:22:18;;;;;;;;;;;;;;;10.61;100.00;101211.19;5063548;28;19936;-75
2022/10/02 03:24:48;;;;;;;;;;;;;;;10.63;100.00;101209.34;5080169;28;19924;-74
2022/10/02 03:27:16;;;;;;;;;;;;;;;10.67;100.00;101211.81;5046865;28;20385;-74
2022/10/02 03:29:48;;;;;;;;;;;;;;;10.74;100.00;101209.78;5048187;28;19929;-74
2022/10/02 03:32:14;;;;;;;;;;;;;;;10.82;100.00;101212.09;5048281;28;19929;-74
2022/10/02 03:34:39;;;;;;;;;;;;;;;10.85;100.00;101215.50;5046882;28;19935;-75
2022/10/02 03:37:05;;;;;;;;;;;;;;;10.91;100.00;101218.81;5047862;28;19933;-74
2022/10/02 03:39:30;;;;;;;;;;;;;;;10.93;100.00;101223.13;5046790;28;19929;-75
2022/10/02 03:41:55;;;;;;;;;;;;;;;10.93;100.00;101227.56;5048111;28;19928;-74
2022/10/02 03:44:21;;;;;;;;;;;;;;;10.94;100.00;101224.84;5046864;28;19933;-75
2022/10/02 03:46:46;;;;;;;;;;;;;;;10.93;100.00;101220.47;5047564;28;19936;-74
2022/10/02 03:49:12;;;;;;;;;;;;;;;10.92;100.00;101226.72;5047456;28;20023;-75
2022/10/02 03:51:37;;;;;;;;;;;;;;;10.90;100.00;101217.09;5046681;28;19928;-74
2022/10/02 03:54:05;;;;;;;;;;;;;;;10.87;100.00;101223.38;5048762;28;19975;-74
2022/10/02 03:56:41;;;;;;;;;;;;;;;10.85;100.00;101231.38;5047573;28;20397;-74
2022/10/02 03:59:09;;;;;;;;;;;;;;;10.82;100.00;101236.81;5048097;28;20411;-74
2022/10/02 04:01:35;;;;;;;;;;;;;;;10.82;100.00;101236.81;5045930;28;19929;-75
2022/10/02 04:04:03;;;;;;;;;;;;;;;10.79;100.00;101244.88;5046525;28;19935;-74
2022/10/02 04:06:34;;;;;;;;;;;;;;;10.78;100.00;101242.31;5046259;28;19960;-74
2022/10/02 04:09:04;;;;;;;;;;;;;;;10.73;100.00;101239.81;5047629;28;19975;-75
2022/10/02 04:11:30;;;;;;;;;;;;;;;10.66;100.00;101247.16;5046121;28;20281;-74
2022/10/02 04:14:13;;;;;;;;;;;;;;;10.60;100.00;101252.69;5046070;28;20118;-74
2022/10/02 04:16:45;;;;;;;;;;;;;;;10.59;100.00;101248.31;5046805;28;19924;-74
2022/10/02 04:19:14;;;;;;;;;;;;;;;10.54;100.00;101253.78;5048563;28;19929;-75
2022/10/02 04:21:47;;;;;;;;;;;;;;;10.49;100.00;101249.59;5062600;28;19955;-74
2022/10/02 04:24:18;;;;;;;;;;;;;;;10.42;100.00;101244.53;5045792;28;20488;-74
2022/10/02 04:26:46;;;;;;;;;;;;;;;10.37;100.00;101243.81;5046615;28;19928;-75
2022/10/02 04:29:19;;;;;;;;;;;;;;;10.35;100.00;101244.81;5048573;28;20383;-74
2022/10/02 04:31:50;;;;;;;;;;;;;;;10.32;100.00;101243.13;5046980;28;19943;-74
2022/10/02 04:34:15;;;;;;;;;;;;;;;10.30;100.00;101244.97;5046732;28;20042;-75
2022/10/02 04:37:06;;;;;;;;;;;;;;;10.29;100.00;101241.47;5048846;28;19933;-73
2022/10/02 04:39:41;;;;;;;;;;;;;;;10.27;100.00;101242.44;5016568;28;19932;-74
2022/10/02 04:42:13;;;;;;;;;;;;;;;10.30;100.00;101250.28;5047568;28;19932;-74
2022/10/02 04:44:39;;;;;;;;;;;;;;;10.32;100.00;101256.38;5047062;28;19928;-74
2022/10/02 04:47:07;;;;;;;;;;;;;;;10.36;100.00;101263.28;5080268;28;19928;-75
2022/10/02 04:49:45;;;;;;;;;;;;;;;10.40;100.00;101256.09;5048560;28;20404;-74
2022/10/02 04:52:11;;;;;;;;;;;;;;;10.42;100.00;101255.09;5047034;28;19998;-74
2022/10/02 04:54:55;;;;;;;;;;;;;;;10.42;100.00;101260.41;5048226;28;20388;-74
2022/10/02 04:57:20;;;;;;;;;;;;;;;10.42;100.00;101256.88;5048941;28;19951;-74
2022/10/02 04:59:52;;;;;;;;;;;;;;;10.40;100.00;101262.22;5051655;28;19924;-74
2022/10/02 05:02:23;;;;;;;;;;;;;;;10.39;100.00;101275.50;5032603;28;19935;-74
2022/10/02 05:05:07;;;;;;;;;;;;;;;10.36;100.00;101276.50;5049501;28;19935;-74
2022/10/02 05:07:38;;;;;;;;;;;;;;;10.33;100.00;101266.03;5051062;28;20433;-74
2022/10/02 05:10:13;;;;;;;;;;;;;;;10.32;100.00;101277.53;5051003;28;20395;-74
2022/10/02 05:12:41;;;;;;;;;;;;;;;10.31;100.00;101278.47;5050563;28;19928;-74
2022/10/02 05:15:39;;;;;;;;;;;;;;;10.30;100.00;101258.22;5050775;28;19929;-73
2022/10/02 05:18:05;;;;;;;;;;;;;;;10.32;100.00;101256.38;5056789;28;19929;-73
2022/10/02 05:20:30;;;;;;;;;;;;;;;10.32;100.00;101259.00;5051693;28;19939;-74
2022/10/02 05:23:08;;;;;;;;;;;;;;;10.30;100.00;101259.06;5051163;28;19929;-74
2022/10/02 05:25:44;;;;;;;;;;;;;;;10.29;100.00;101249.41;5051650;28;20385;-74
2022/10/02 05:28:09;;;;;;;;;;;;;;;10.31;100.00;101273.16;5049466;28;19953;-74
2022/10/02 05:30:55;;;;;;;;;;;;;;;10.34;100.00;101280.97;5051026;28;19925;-74
2022/10/02 05:33:31;;;;;;;;;;;;;;;10.34;100.00;101283.63;5050106;28;19929;-73
2022/10/02 05:36:15;;;;;;;;;;;;;;;10.32;100.00;101280.19;5051635;28;19932;-74
2022/10/02 05:38:47;;;;;;;;;;;;;;;10.29;100.00;101277.63;5083490;28;19928;-74
2022/10/02 05:41:15;;;;;;;;;;;;;;;10.27;100.00;101284.78;5050859;28;20665;-74
2022/10/02 05:44:02;;;;;;;;;;;;;;;10.23;100.00;101288.47;5051697;28;19976;-73
2022/10/02 05:46:32;;;;;;;;;;;;;;;10.23;100.00;101291.13;5048333;28;19924;-74
2022/10/02 05:48:58;;;;;;;;;;;;;;;10.25;100.00;101290.13;5066962;28;19928;-73
2022/10/02 05:51:30;;;;;;;;;;;;;;;10.29;100.00;101291.75;5049184;28;19978;-74
2022/10/02 05:53:57;;;;;;;;;;;;;;;10.37;100.00;101303.81;5051167;28;19931;-74
2022/10/02 05:56:33;;;;;;;;;;;;;;;10.45;100.00;101307.06;5048687;28;19975;-73
2022/10/02 05:59:01;;;;;;;;;;;;;;;10.52;100.00;101310.38;5051325;28;19929;-73
2022/10/02 06:01:27;;;;;;;;;;;;;;;10.56;100.00;101314.59;5083851;28;20446;-73
2022/10/02 06:03:59;;;;;;;;;;;;;;;10.61;100.00;101312.66;5048689;28;19954;-73
2022/10/02 06:06:32;;;;;;;;;;;;;;;10.66;100.00;101318.66;5049251;28;19929;-74
2022/10/02 06:08:59;;;;;;;;;;;;;;;10.69;100.00;101315.88;5049364;28;19951;-74
2022/10/02 06:11:25;;;;;;;;;;;;;;;10.73;100.00;101327.19;5048933;28;19929;-74
2022/10/02 06:13:51;;;;;;;;;;;;;;;10.76;100.00;101323.56;5050504;28;19929;-74
2022/10/02 06:16:19;;;;;;;;;;;;;;;10.79;100.00;101334.06;5032227;28;20371;-74
2022/10/02 06:18:47;;;;;;;;;;;;;;;10.84;100.00;101345.34;5064574;28;20428;-74
2022/10/02 06:21:25;;;;;;;;;;;;;;;10.90;100.00;101345.09;5048420;28;19932;-74
2022/10/02 06:23:51;;;;;;;;;;;;;;;10.98;100.00;101350.09;5047953;28;19956;-74
2022/10/02 06:26:39;;;;;;;;;;;;;;;11.05;100.00;101356.03;5050679;28;19935;-74
2022/10/02 06:29:06;;;;;;;;;;;;;;;11.11;100.00;101359.28;5046553;28;19950;-74
2022/10/02 06:31:38;;;;;;;;;;;;;;;11.17;100.00;101368.78;5048647;28;20451;-75
2022/10/02 06:34:03;;;;;;;;;;;;;;;11.21;100.00;101393.38;5048271;28;19928;-75
2022/10/02 06:36:47;;;;;;;;;;;;;;;11.12;100.00;101394.63;5047877;28;20022;-75
2022/10/02 06:39:32;;;;;;;;;;;;;;;10.93;100.00;101383.84;5048949;28;19932;-74
2022/10/02 06:42:00;;;;;;;;;;;;;;;10.78;100.00;101377.38;5064881;28;19932;-74
2022/10/02 06:44:28;;;;;;;;;;;;;;;10.70;100.00;101383.81;5048949;28;19927;-75
2022/10/02 06:47:00;;;;;;;;;;;;;;;10.66;100.00;101390.16;5049566;28;20405;-75
2022/10/02 06:49:32;;;;;;;;;;;;;;;10.63;100.00;101390.28;5049872;28;20326;-75
2022/10/02 06:52:11;;;;;;;;;;;;;;;10.62;100.00;101396.47;5048774;28;20701;-75
2022/10/02 06:54:49;;;;;;;;;;;;;;;10.58;100.00;101398.34;5048358;28;19924;-75
2022/10/02 06:57:20;;;;;;;;;;;;;;;10.58;100.00;101392.22;5065197;28;19929;-75
2022/10/02 07:00:10;;;;;;;;;;;;;;;10.59;100.00;101391.28;5048808;28;20294;-74
2022/10/02 07:02:36;;;;;;;;;;;;;;;10.65;100.00;101392.84;5064068;28;19932;-75
2022/10/02 07:05:08;;;;;;;;;;;;;;;10.73;100.00;101393.41;5049434;28;19924;-74
2022/10/02 07:07:43;;;;;;;;;;;;;;;10.83;100.00;101397.47;5049121;28;20307;-74
2022/10/02 07:10:11;;;;;;;;;;;;;;;10.90;100.00;101392.78;5047836;28;21135;-75
2022/10/02 07:12:52;;;;;;;;;;;;;;;10.94;100.00;101402.34;5049220;28;19931;-74
2022/10/02 07:15:18;;;;;;;;;;;;;;;10.97;100.00;101398.72;5049554;28;20388;-74
2022/10/02 07:17:53;;;;;;;;;;;;;;;11.00;100.00;101401.22;5049839;28;19935;-75
2022/10/02 07:20:18;;;;;;;;;;;;;;;11.05;100.00;101399.28;5047168;28;20023;-74
2022/10/02 07:22:44;;;;;;;;;;;;;;;11.12;100.00;101410.53;5049080;28;19924;-74
2022/10/02 07:25:26;;;;;;;;;;;;;;;11.18;100.00;101410.28;5049555;28;20098;-74
2022/10/02 07:27:51;;;;;;;;;;;;;;;11.22;100.00;101409.22;5046089;28;19980;-75
2022/10/02 07:30:17;;;;;;;;;;;;;;;11.25;100.00;101413.53;5049353;28;20066;-75
2022/10/02 07:32:42;;;;;;;;;;;;;;;11.28;100.00;101416.09;5047469;28;21658;-75
2022/10/02 07:35:26;;;;;;;;;;;;;;;11.33;100.00;101422.06;5049041;28;19929;-74
2022/10/02 07:37:57;;;;;;;;;;;;;;;11.39;100.00;101423.63;5048301;28;20033;-74
2022/10/02 07:40:33;;;;;;;;;;;;;;;11.47;100.00;101423.28;5048572;28;20343;-75
2022/10/02 07:42:58;;;;;;;;;;;;;;;11.51;100.00;101431.06;5081091;28;20081;-75
2022/10/02 07:45:27;;;;;;;;;;;;;;;11.55;100.00;101430.03;5048639;28;20406;-74
2022/10/02 07:48:16;;;;;;;;;;;;;;;11.64;100.00;101435.88;5049224;28;19935;-74
2022/10/02 07:50:41;;;;;;;;;;;;;;;11.72;100.00;101449.69;5026577;28;20470;-74
2022/10/02 07:53:14;;;;;;;;;;;;;;;11.81;100.00;101449.31;5048187;28;19929;-74
2022/10/02 07:55:40;;;;;;;;;;;;;;;11.89;100.00;101453.44;5047859;28;19929;-74
2022/10/02 07:58:35;;;;;;;;;;;;;;;11.96;100.00;101457.56;5047097;28;20011;-75
2022/10/02 08:01:01;;;;;;;;;;;;;;;12.03;100.00;101463.47;5042842;28;19929;-75
2022/10/02 08:03:41;;;;;;;;;;;;;;;12.07;100.00;101459.81;5047019;28;19928;-74
2022/10/02 08:06:06;;;;;;;;;;;;;;;12.13;100.00;101463.97;5046306;28;19951;-75
2022/10/02 08:08:58;;;;;;;;;;;;;;;12.22;100.00;101463.63;5045926;28;19924;-74
2022/10/02 08:11:42;;;;;;;;;;;;;;;12.34;100.00;101462.22;5044060;28;20010;-74
2022/10/02 08:14:08;;;;;;;;;;;;;;;12.42;100.00;101464.56;5047736;28;19929;-75
2022/10/02 08:16:35;;;;;;;;;;;;;;;12.49;100.00;101473.97;5047630;28;19951;-75
2022/10/02 08:19:02;;;;;;;;;;;;;;;12.53;100.00;101467.59;5046488;28;19985;-75
2022/10/02 08:21:30;;;;;;;;;;;;;;;12.60;100.00;101470.84;5027877;28;21574;-73
2022/10/02 08:24:00;;;;;;;;;;;;;;;12.66;100.00;101478.56;5046388;28;21241;-74
2022/10/02 08:26:27;;;;;;;;;;;;;;;12.70;100.00;101477.47;5037705;28;20366;-75
2022/10/02 08:28:56;;;;;;;;;;;;;;;12.75;100.00;101477.28;5047473;28;19929;-74
2022/10/02 08:31:22;;;;;;;;;;;;;;;12.82;100.00;101477.84;5046525;28;19928;-75
2022/10/02 08:33:48;;;;;;;;;;;;;;;12.89;100.00;101489.94;5045362;28;19925;-75
2022/10/02 08:36:17;;;;;;;;;;;;;;;12.94;100.00;101497.69;5047524;28;20000;-75
2022/10/02 08:38:45;;;;;;;;;;;;;;;13.00;100.00;101500.06;5046472;28;19947;-75
2022/10/02 08:41:29;;;;;;;;;;;;;;;13.06;100.00;101499.81;5043799;28;19925;-76
2022/10/02 08:44:07;;;;;;;;;;;;;;;13.14;100.00;101510.94;5047282;28;19959;-75
2022/10/02 08:46:48;;;;;;;;;;;;;;;13.20;100.00;101514.25;5047646;28;19947;-75
2022/10/02 08:49:32;;;;;;;;;;;;;;;13.23;100.00;101514.13;5045358;28;19990;-75
2022/10/02 08:52:16;;;;;;;;;;;;;;;13.27;100.00;101513.91;5061656;28;20617;-76
2022/10/02 08:54:53;;;;;;;;;;;;;;;13.31;100.00;101511.97;5046656;28;20291;-76
2022/10/02 08:57:37;;;;;;;;;;;;;;;13.34;100.00;101525.13;5044867;28;19928;-76
2022/10/02 09:00:21;;;;;;;;;;;;;;;13.35;100.00;101520.69;5079296;28;19932;-76
2022/10/02 09:02:47;;;;;;;;;;;;;;;13.37;100.00;101527.66;5046138;28;19925;-77
2022/10/02 09:05:22;;;;;;;;;;;;;;;13.40;100.00;101532.81;5062396;28;19924;-73
2022/10/02 09:08:07;;;;;;;;;;;;;;;13.42;100.00;101536.25;5046115;28;20432;-74
2022/10/02 09:10:35;;;;;;;;;;;;;;;13.44;100.00;101541.50;5046395;28;19950;-74
2022/10/02 09:13:01;;;;;;;;;;;;;;;13.47;100.00;101548.53;5062725;28;20985;-74
2022/10/02 09:15:36;;;;;;;;;;;;;;;13.50;100.00;101549.25;5047076;28;19929;-75
2022/10/02 09:18:12;;;;;;;;;;;;;;;13.51;100.00;101558.09;5046983;28;19928;-75
2022/10/02 09:20:41;;;;;;;;;;;;;;;13.54;100.00;101560.59;5045726;28;19924;-75
2022/10/02 09:23:25;;;;;;;;;;;;;;;13.57;100.00;101556.00;5061991;28;19932;-75
2022/10/02 09:26:03;;;;;;;;;;;;;;;13.64;100.00;101550.38;5047061;28;19929;-75
2022/10/02 09:28:34;;;;;;;;;;;;;;;13.69;100.00;101565.19;5037980;28;20430;-75
2022/10/02 09:31:04;;;;;;;;;;;;;;;13.71;100.00;101559.81;5047193;28;19937;-74
2022/10/02 09:34:02;;;;;;;;;;;;;;;13.72;100.00;101566.84;5047872;28;19931;-74
2022/10/02 09:36:34;;;;;;;;;;;;;;;13.75;100.00;101573.81;5029751;28;20377;-75
2022/10/02 09:39:08;;;;;;;;;;;;;;;13.76;100.00;101570.22;5046553;28;20428;-75
2022/10/02 09:41:59;;;;;;;;;;;;;;;13.80;100.00;101566.50;5046307;28;19925;-75
2022/10/02 09:44:44;;;;;;;;;;;;;;;13.83;100.00;101576.97;5037131;28;20165;-75
2022/10/02 09:47:18;;;;;;;;;;;;;;;13.81;100.00;101574.41;5050756;28;19928;-74
2022/10/02 09:49:43;;;;;;;;;;;;;;;13.82;100.00;101578.78;5048925;28;20496;-74
2022/10/02 09:52:14;;;;;;;;;;;;;;;13.89;100.00;101571.38;5050719;28;19933;-74
2022/10/02 09:55:01;;;;;;;;;;;;;;;14.00;100.00;101578.84;5050374;28;19925;-75
2022/10/02 09:57:36;;;;;;;;;;;;;;;14.14;100.00;101580.84;5031202;28;19935;-75
2022/10/02 10:00:20;;;;;;;;;;;;;;;14.25;100.00;101588.31;5056708;28;19929;-75
2022/10/02 10:02:49;;;;;;;;;;;;;;;14.37;100.00;101597.47;5050274;28;19936;-76
2022/10/02 10:05:33;;;;;;;;;;;;;;;14.16;100.00;101600.25;5050476;28;20008;-76
2022/10/02 10:08:14;;;;;;;;;;;;;;;13.95;100.00;101595.03;5049268;28;19925;-76
2022/10/02 10:10:59;;;;;;;;;;;;;;;13.74;100.00;101606.69;5049705;28;20364;-76
2022/10/02 10:13:43;;;;;;;;;;;;;;;13.53;100.00;101622.72;5048691;28;19982;-76
2022/10/02 10:16:20;;;;;;;;;;;;;;;13.33;100.00;101626.25;5050335;28;20361;-75
2022/10/02 10:18:49;;;;;;;;;;;;;;;13.15;100.00;101624.34;5047533;28;19932;-77
2022/10/02 10:21:27;;;;;;;;;;;;;;;13.09;100.00;101627.28;5048363;28;20414;-75
2022/10/02 10:24:05;;;;;;;;;;;;;;;13.11;100.00;101628.06;5049090;28;20414;-75
2022/10/02 10:26:42;;;;;;;;;;;;;;;13.25;100.00;101630.09;5048958;28;19928;-75
2022/10/02 10:29:11;;;;;;;;;;;;;;;13.43;100.00;101638.19;5048712;28;19972;-75
2022/10/02 10:31:55;;;;;;;;;;;;;;;13.64;100.00;101638.19;5049632;28;19963;-76
2022/10/02 10:34:23;;;;;;;;;;;;;;;13.74;100.00;101644.84;5049347;28;19932;-75
2022/10/02 10:39:57;;;;;;;;;;;;;;;13.77;100.00;101646.50;5048790;28;19986;-75
2022/10/02 10:42:41;;;;;;;;;;;;;;;13.77;100.00;101651.81;5049089;28;19928;-75
2022/10/02 10:45:07;;;;;;;;;;;;;;;13.76;100.00;101647.41;5049646;28;19970;-75
2022/10/02 10:47:37;;;;;;;;;;;;;;;13.75;100.00;101653.66;5047823;28;19928;-76
2022/10/02 10:50:03;;;;;;;;;;;;;;;13.71;100.00;101658.25;5048232;28;19960;-76
2022/10/02 10:52:31;;;;;;;;;;;;;;;13.67;100.00;101660.19;5049140;28;20015;-76
2022/10/02 10:54:59;;;;;;;;;;;;;;;13.64;100.00;101656.81;5048985;28;19975;-75
2022/10/02 10:57:44;;;;;;;;;;;;;;;13.62;100.00;101664.84;5049014;28;20294;-75
2022/10/02 11:00:13;;;;;;;;;;;;;;;13.66;100.00;101669.13;5048285;28;19924;-76
2022/10/02 11:02:43;;;;;;;;;;;;;;;13.71;100.00;101664.47;5049353;28;20082;-75
2022/10/02 11:05:14;;;;;;;;;;;;;;;13.74;100.00;101673.22;5049746;28;19936;-76
2022/10/02 11:07:49;;;;;;;;;;;;;;;13.71;100.00;101669.78;5064076;28;19956;-76
2022/10/02 11:10:19;;;;;;;;;;;;;;;13.69;100.00;101676.94;5047895;28;19928;-75
2022/10/02 11:12:51;;;;;;;;;;;;;;;13.68;100.00;101685.88;5030943;28;19954;-75
2022/10/02 11:15:30;;;;;;;;;;;;;;;13.68;100.00;101688.53;5049797;28;21323;-75
2022/10/02 11:17:59;;;;;;;;;;;;;;;13.73;100.00;101687.47;5047293;28;19920;-75
2022/10/02 11:20:43;;;;;;;;;;;;;;;13.80;100.00;101683.59;5081748;28;19931;-76
2022/10/02 11:23:27;;;;;;;;;;;;;;;13.80;100.00;101688.91;5049855;28;19932;-76
2022/10/02 11:26:11;;;;;;;;;;;;;;;13.75;100.00;101691.78;5049703;28;20015;-76
2022/10/02 11:28:58;;;;;;;;;;;;;;;13.70;100.00;101694.66;5049756;28;20338;-76
2022/10/02 11:31:42;;;;;;;;;;;;;;;13.70;100.00;101689.34;5047423;28;19929;-75
2022/10/02 11:34:25;;;;;;;;;;;;;;;13.77;100.00;101687.25;5048700;28;19928;-76
2022/10/02 11:36:51;;;;;;;;;;;;;;;13.91;100.00;101694.63;5047214;28;19937;-76
2022/10/02 11:39:29;;;;;;;;;;;;;;;14.04;100.00;101696.69;5049116;28;19928;-76
2022/10/02 11:41:54;;;;;;;;;;;;;;;14.13;100.00;101701.59;5081467;28;20391;-76
2022/10/02 11:44:38;;;;;;;;;;;;;;;14.12;100.00;101710.53;5049224;28;20505;-76
2022/10/02 11:47:11;;;;;;;;;;;;;;;14.17;100.00;101718.31;5048627;28;20061;-75
2022/10/02 11:49:36;;;;;;;;;;;;;;;14.20;100.00;101713.69;5047809;28;19931;-76
2022/10/02 11:52:07;;;;;;;;;;;;;;;14.29;100.00;101732.81;5047979;28;19933;-75
2022/10/02 11:54:36;;;;;;;;;;;;;;;14.39;100.00;101729.66;5047307;28;20369;-76
2022/10/02 11:57:13;;;;;;;;;;;;;;;14.50;100.00;101728.28;5063322;28;19947;-75
2022/10/02 11:59:44;;;;;;;;;;;;;;;14.64;100.00;101712.50;5046776;28;19925;-76
2022/10/02 12:02:10;;;;;;;;;;;;;;;14.78;100.00;101724.31;5063142;28;19924;-76
2022/10/02 12:04:56;;;;;;;;;;;;;;;14.87;100.00;101725.66;5048104;28;20007;-75
2022/10/02 12:07:23;;;;;;;;;;;;;;;14.95;100.00;101742.13;5047119;28;19990;-74
2022/10/02 12:09:59;;;;;;;;;;;;;;;14.99;100.00;101740.19;5046162;28;19929;-73
2022/10/02 12:12:31;;;;;;;;;;;;;;;14.99;100.00;101748.19;5046118;28;19933;-74
2022/10/02 12:15:16;;;;;;;;;;;;;;;14.96;100.00;101743.84;5047947;28;20419;-74
2022/10/02 12:17:44;;;;;;;;;;;;;;;14.96;100.00;101759.84;5063175;28;19979;-74
2022/10/02 12:29:05;;;;;;;;;;;;;;;14.75;100.00;101770.63;5048321;28;19983;-74
2022/10/02 12:31:44;;;;;;;;;;;;;;;14.76;100.00;101756.38;5046747;28;20398;-74
2022/10/02 12:34:23;;;;;;;;;;;;;;;14.75;100.00;101761.75;5046885;28;19936;-74
2022/10/02 12:36:55;;;;;;;;;;;;;;;14.73;100.00;101766.28;5080336;28;19935;-74
2022/10/02 12:39:20;;;;;;;;;;;;;;;14.72;100.00;101768.09;5048014;28;20054;-74
2022/10/02 12:42:04;;;;;;;;;;;;;;;14.74;100.00;101770.69;5048031;28;20947;-74
2022/10/02 12:44:43;;;;;;;;;;;;;;;14.69;100.00;101773.56;5049013;28;20380;-74
2022/10/02 12:47:35;;;;;;;;;;;;;;;14.60;100.00;101779.34;5080897;28;19929;-75
2022/10/02 12:50:20;;;;;;;;;;;;;;;14.51;100.00;101777.97;5046661;28;19930;-74
2022/10/02 12:52:55;;;;;;;;;;;;;;;14.45;100.00;101771.16;5047419;28;19928;-74
2022/10/02 12:55:39;;;;;;;;;;;;;;;14.41;100.00;101777.53;5048360;28;20273;-74
2022/10/02 12:58:23;;;;;;;;;;;;;;;14.40;100.00;101782.00;5046465;28;19968;-74
2022/10/02 13:00:54;;;;;;;;;;;;;;;14.38;99.95;101775.88;5063118;28;19925;-74
2022/10/02 13:03:23;;;;;;;;;;;;;;;14.39;99.84;101776.75;5046636;28;20123;-73
2022/10/02 13:06:13;;;;;;;;;;;;;;;14.40;100.00;101786.47;5046911;28;19928;-73
2022/10/02 13:08:54;;;;;;;;;;;;;;;14.40;100.00;101787.31;5040776;28;19928;-74